logo
Rechercher aéroport 
image banner adimage banner adimage banner ad
image banner ad

CAT5 - Port Mcneill

Situé à , Canada

ICAO - CAT5, IATA - YMP

Données fournies par Airmate  

Information générale

Coordonnées: N50°34'32" W127°1'43"
Élévation : 225 feet MSL.
Variation magnétique : 17.9292° East
Voir autres Aéroports à British Columbia

Données opérationnelles

Special qualification required
Heure actuelle UTC:
Heure actuelle locale:
Météo à : CYZT - Port Hardy ( 27 km )
METAR: CYZT 152000Z 02007KT 20SM FEW015 18/13 A3017 RMK CF1 SLP219
Voir NOTAMs / SUP AIP / TFR affectant cet aéroport [VIEW]
Fréquences de communication: [VIEW]

Pistes:

Identifiant RWYQFULongueur (ft)Largeur (ft)SurfaceLDA (ft)
0681°240036ASPH
24261°240036ASPH
11132°365075GRAVE
29312°365075GRAVE

Coordonnées de l'aéroport

Adresse: Canada

Vue satellite de CAT5